sensor_id;sensor_type;location;lat;lon;timestamp;temperature;humidity
20985;DHT22;10651;47.552;7.606;2022-10-15T05:19:26;16.90;99.90
20985;DHT22;10651;47.552;7.606;2022-10-15T05:21:52;16.80;99.90
20985;DHT22;10651;47.552;7.606;2022-10-15T05:24:17;16.90;99.90
20985;DHT22;10651;47.552;7.606;2022-10-15T05:26:43;16.90;99.90
20985;DHT22;10651;47.552;7.606;2022-10-15T05:29:08;16.80;99.90
20985;DHT22;10651;47.552;7.606;2022-10-15T05:31:34;16.80;99.90
20985;DHT22;10651;47.552;7.606;2022-10-15T05:34:05;16.90;99.90
20985;DHT22;10651;47.552;7.606;2022-10-15T05:36:31;16.90;99.90
20985;DHT22;10651;47.552;7.606;2022-10-15T05:39:02;16.90;99.90
20985;DHT22;10651;47.552;7.606;2022-10-15T05:41:29;16.90;99.90
20985;DHT22;10651;47.552;7.606;2022-10-15T05:46:23;16.80;99.90
20985;DHT22;10651;47.552;7.606;2022-10-15T05:48:49;16.80;99.90
20985;DHT22;10651;47.552;7.606;2022-10-15T05:51:15;16.80;99.90
20985;DHT22;10651;47.552;7.606;2022-10-15T05:53:41;16.80;99.90
20985;DHT22;10651;47.552;7.606;2022-10-15T05:56:08;16.80;99.90
20985;DHT22;10651;47.552;7.606;2022-10-15T05:58:35;16.80;99.90
20985;DHT22;10651;47.552;7.606;2022-10-15T06:01:02;16.90;99.90
20985;DHT22;10651;47.552;7.606;2022-10-15T06:03:28;16.90;99.90
20985;DHT22;10651;47.552;7.606;2022-10-15T06:05:54;16.90;99.90
20985;DHT22;10651;47.552;7.606;2022-10-15T06:08:20;16.90;99.90
20985;DHT22;10651;47.552;7.606;2022-10-15T06:10:47;16.90;99.90
20985;DHT22;10651;47.552;7.606;2022-10-15T06:13:13;16.90;99.90
20985;DHT22;10651;47.552;7.606;2022-10-15T06:15:40;16.90;99.90
20985;DHT22;10651;47.552;7.606;2022-10-15T06:18:06;16.90;99.90
20985;DHT22;10651;47.552;7.606;2022-10-15T06:20:32;16.90;99.90
20985;DHT22;10651;47.552;7.606;2022-10-15T06:22:58;16.90;99.90
20985;DHT22;10651;47.552;7.606;2022-10-15T06:25:24;17.00;99.90
20985;DHT22;10651;47.552;7.606;2022-10-15T06:27:50;17.00;99.90
20985;DHT22;10651;47.552;7.606;2022-10-15T06:30:16;17.10;99.90
20985;DHT22;10651;47.552;7.606;2022-10-15T06:32:52;17.00;99.90
20985;DHT22;10651;47.552;7.606;2022-10-15T06:35:19;17.00;99.90
20985;DHT22;10651;47.552;7.606;2022-10-15T06:37:45;17.00;99.90
20985;DHT22;10651;47.552;7.606;2022-10-15T06:40:12;17.10;99.90
20985;DHT22;10651;47.552;7.606;2022-10-15T06:42:38;17.10;99.90
20985;DHT22;10651;47.552;7.606;2022-10-15T06:45:05;17.10;99.90
20985;DHT22;10651;47.552;7.606;2022-10-15T06:47:31;17.20;99.90
20985;DHT22;10651;47.552;7.606;2022-10-15T06:49:57;17.20;99.90
20985;DHT22;10651;47.552;7.606;2022-10-15T06:52:22;17.30;99.90
20985;DHT22;10651;47.552;7.606;2022-10-15T06:54:49;17.30;99.90
20985;DHT22;10651;47.552;7.606;2022-10-15T06:57:15;17.20;99.90
20985;DHT22;10651;47.552;7.606;2022-10-15T06:59:41;17.20;99.90
20985;DHT22;10651;47.552;7.606;2022-10-15T07:02:11;17.10;99.90
20985;DHT22;10651;47.552;7.606;2022-10-15T07:04:38;17.20;99.90
20985;DHT22;10651;47.552;7.606;2022-10-15T07:07:04;17.40;99.90
20985;DHT22;10651;47.552;7.606;2022-10-15T07:09:30;17.50;99.90
20985;DHT22;10651;47.552;7.606;2022-10-15T07:11:56;17.60;99.90
20985;DHT22;10651;47.552;7.606;2022-10-15T07:14:22;17.60;99.90
20985;DHT22;10651;47.552;7.606;2022-10-15T07:16:47;17.60;99.90
20985;DHT22;10651;47.552;7.606;2022-10-15T07:19:13;17.60;99.90
20985;DHT22;10651;47.552;7.606;2022-10-15T07:21:39;17.60;99.90
20985;DHT22;10651;47.552;7.606;2022-10-15T07:24:04;17.70;99.90
20985;DHT22;10651;47.552;7.606;2022-10-15T07:26:30;17.70;99.90
20985;DHT22;10651;47.552;7.606;2022-10-15T07:28:56;17.80;99.90
20985;DHT22;10651;47.552;7.606;2022-10-15T07:31:23;17.90;99.90
20985;DHT22;10651;47.552;7.606;2022-10-15T07:33:54;17.90;99.90
20985;DHT22;10651;47.552;7.606;2022-10-15T07:36:30;17.90;99.90
20985;DHT22;10651;47.552;7.606;2022-10-15T07:38:56;18.00;99.90
20985;DHT22;10651;47.552;7.606;2022-10-15T07:41:22;18.00;99.90
20985;DHT22;10651;47.552;7.606;2022-10-15T07:43:50;18.00;99.90
20985;DHT22;10651;47.552;7.606;2022-10-15T07:46:16;18.00;99.90
20985;DHT22;10651;47.552;7.606;2022-10-15T07:48:42;17.90;99.90
20985;DHT22;10651;47.552;7.606;2022-10-15T07:51:09;18.00;99.90
20985;DHT22;10651;47.552;7.606;2022-10-15T07:53:35;17.90;99.90
20985;DHT22;10651;47.552;7.606;2022-10-15T07:56:04;18.00;99.90
20985;DHT22;10651;47.552;7.606;2022-10-15T07:58:33;18.00;99.90
20985;DHT22;10651;47.552;7.606;2022-10-15T08:01:03;18.00;99.90
20985;DHT22;10651;47.552;7.606;2022-10-15T08:03:30;18.00;99.90
20985;DHT22;10651;47.552;7.606;2022-10-15T08:05:58;18.00;99.90
20985;DHT22;10651;47.552;7.606;2022-10-15T08:08:24;18.00;99.90
20985;DHT22;10651;47.552;7.606;2022-10-15T08:10:49;18.10;99.90
20985;DHT22;10651;47.552;7.606;2022-10-15T08:13:15;18.10;99.90
20985;DHT22;10651;47.552;7.606;2022-10-15T08:15:41;18.20;99.90
20985;DHT22;10651;47.552;7.606;2022-10-15T08:18:07;18.30;99.90
20985;DHT22;10651;47.552;7.606;2022-10-15T08:20:35;18.40;99.90
20985;DHT22;10651;47.552;7.606;2022-10-15T08:23:01;18.50;99.90
20985;DHT22;10651;47.552;7.606;2022-10-15T08:25:27;18.60;99.90
20985;DHT22;10651;47.552;7.606;2022-10-15T08:27:53;18.50;99.90
20985;DHT22;10651;47.552;7.606;2022-10-15T08:30:19;18.70;99.90
20985;DHT22;10651;47.552;7.606;2022-10-15T08:32:44;18.80;99.90
20985;DHT22;10651;47.552;7.606;2022-10-15T08:35:10;18.90;99.90
20985;DHT22;10651;47.552;7.606;2022-10-15T08:37:36;19.00;99.90
20985;DHT22;10651;47.552;7.606;2022-10-15T08:40:03;18.90;99.90
20985;DHT22;10651;47.552;7.606;2022-10-15T08:42:36;18.90;99.90
20985;DHT22;10651;47.552;7.606;2022-10-15T08:45:17;19.00;99.90
20985;DHT22;10651;47.552;7.606;2022-10-15T08:47:54;18.90;99.90
20985;DHT22;10651;47.552;7.606;2022-10-15T08:51:00;19.00;99.90
20985;DHT22;10651;47.552;7.606;2022-10-15T08:53:27;19.10;99.90
20985;DHT22;10651;47.552;7.606;2022-10-15T08:56:02;19.20;99.90
20985;DHT22;10651;47.552;7.606;2022-10-15T08:58:42;19.30;99.90
20985;DHT22;10651;47.552;7.606;2022-10-15T09:02:01;19.30;99.90
20985;DHT22;10651;47.552;7.606;2022-10-15T09:12:57;19.00;99.90
20985;DHT22;10651;47.552;7.606;2022-10-15T09:15:25;19.00;99.90
20985;DHT22;10651;47.552;7.606;2022-10-15T09:17:53;18.90;99.90
20985;DHT22;10651;47.552;7.606;2022-10-15T09:20:31;18.90;99.90
20985;DHT22;10651;47.552;7.606;2022-10-15T09:22:57;18.80;99.90
20985;DHT22;10651;47.552;7.606;2022-10-15T09:25:24;18.80;99.90
20985;DHT22;10651;47.552;7.606;2022-10-15T09:27:53;18.80;99.90
20985;DHT22;10651;47.552;7.606;2022-10-15T09:30:48;18.80;99.90
20985;DHT22;10651;47.552;7.606;2022-10-15T09:43:55;18.60;99.90
20985;DHT22;10651;47.552;7.606;2022-10-15T09:46:22;18.70;99.90
20985;DHT22;10651;47.552;7.606;2022-10-15T09:51:28;18.70;99.90
20985;DHT22;10651;47.552;7.606;2022-10-15T09:54:07;18.90;99.90
20985;DHT22;10651;47.552;7.606;2022-10-15T09:56:37;18.80;99.90
20985;DHT22;10651;47.552;7.606;2022-10-15T09:59:04;18.80;99.90
20985;DHT22;10651;47.552;7.606;2022-10-15T10:01:31;18.90;99.90
20985;DHT22;10651;47.552;7.606;2022-10-15T10:04:19;19.00;99.90
20985;DHT22;10651;47.552;7.606;2022-10-15T10:06:59;19.00;99.90
20985;DHT22;10651;47.552;7.606;2022-10-15T10:09:30;19.10;99.90
20985;DHT22;10651;47.552;7.606;2022-10-15T10:12:05;19.10;99.90
20985;DHT22;10651;47.552;7.606;2022-10-15T10:14:45;19.20;99.90
20985;DHT22;10651;47.552;7.606;2022-10-15T10:17:21;19.30;99.90
20985;DHT22;10651;47.552;7.606;2022-10-15T10:20:15;19.20;99.90
20985;DHT22;10651;47.552;7.606;2022-10-15T10:22:49;19.20;99.90
20985;DHT22;10651;47.552;7.606;2022-10-15T10:30:21;19.10;99.90
20985;DHT22;10651;47.552;7.606;2022-10-15T10:32:48;19.00;99.90
20985;DHT22;10651;47.552;7.606;2022-10-15T10:35:24;19.10;99.90
20985;DHT22;10651;47.552;7.606;2022-10-15T10:37:51;19.10;99.90
20985;DHT22;10651;47.552;7.606;2022-10-15T10:40:28;19.10;99.90
20985;DHT22;10651;47.552;7.606;2022-10-15T10:45:59;19.10;99.90
20985;DHT22;10651;47.552;7.606;2022-10-15T10:48:37;19.10;99.90
20985;DHT22;10651;47.552;7.606;2022-10-15T10:51:05;19.10;99.90
20985;DHT22;10651;47.552;7.606;2022-10-15T10:53:31;19.10;99.90
20985;DHT22;10651;47.552;7.606;2022-10-15T10:56:01;19.10;99.90
20985;DHT22;10651;47.552;7.606;2022-10-15T10:58:32;19.20;99.90
20985;DHT22;10651;47.552;7.606;2022-10-15T11:00:58;19.20;99.90
20985;DHT22;10651;47.552;7.606;2022-10-15T11:03:38;19.20;99.90
20985;DHT22;10651;47.552;7.606;2022-10-15T11:20:44;21.40;99.90
20985;DHT22;10651;47.552;7.606;2022-10-15T11:28:53;21.00;99.90
20985;DHT22;10651;47.552;7.606;2022-10-15T11:37:33;23.70;99.90
20985;DHT22;10651;47.552;7.606;2022-10-15T11:42:54;23.40;99.90
20985;DHT22;10651;47.552;7.606;2022-10-15T11:50:51;24.00;99.90
20985;DHT22;10651;47.552;7.606;2022-10-15T11:53:38;28.20;99.90
20985;DHT22;10651;47.552;7.606;2022-10-15T11:58:49;29.00;99.90
20985;DHT22;10651;47.552;7.606;2022-10-15T12:03:52;34.80;99.90
20985;DHT22;10651;47.552;7.606;2022-10-15T12:06:21;39.50;99.90
20985;DHT22;10651;47.552;7.606;2022-10-15T12:08:48;41.70;93.20
20985;DHT22;10651;47.552;7.606;2022-10-15T12:11:50;38.60;92.00
20985;DHT22;10651;47.552;7.606;2022-10-15T12:17:45;41.20;87.90
20985;DHT22;10651;47.552;7.606;2022-10-15T12:20:14;36.30;84.00
20985;DHT22;10651;47.552;7.606;2022-10-15T12:22:52;33.50;90.60
20985;DHT22;10651;47.552;7.606;2022-10-15T12:28:23;28.70;95.10
20985;DHT22;10651;47.552;7.606;2022-10-15T12:31:03;27.50;99.90
20985;DHT22;10651;47.552;7.606;2022-10-15T12:33:34;27.20;99.90
20985;DHT22;10651;47.552;7.606;2022-10-15T12:36:14;26.40;99.90
20985;DHT22;10651;47.552;7.606;2022-10-15T12:39:02;26.00;99.90
20985;DHT22;10651;47.552;7.606;2022-10-15T12:41:38;25.70;99.90
20985;DHT22;10651;47.552;7.606;2022-10-15T12:44:10;25.50;99.90
20985;DHT22;10651;47.552;7.606;2022-10-15T12:46:39;25.10;99.90
20985;DHT22;10651;47.552;7.606;2022-10-15T12:51:55;24.30;99.90
20985;DHT22;10651;47.552;7.606;2022-10-15T12:54:41;24.00;99.90
20985;DHT22;10651;47.552;7.606;2022-10-15T13:00:00;23.20;99.90
20985;DHT22;10651;47.552;7.606;2022-10-15T13:05:02;23.00;99.90
20985;DHT22;10651;47.552;7.606;2022-10-15T13:07:28;22.70;99.90
20985;DHT22;10651;47.552;7.606;2022-10-15T13:09:54;22.40;99.90
20985;DHT22;10651;47.552;7.606;2022-10-15T13:12:24;22.10;99.90
20985;DHT22;10651;47.552;7.606;2022-10-15T13:14:58;21.90;99.90
20985;DHT22;10651;47.552;7.606;2022-10-15T13:17:28;21.80;99.90
20985;DHT22;10651;47.552;7.606;2022-10-15T13:19:58;21.70;99.90
20985;DHT22;10651;47.552;7.606;2022-10-15T13:22:27;21.70;99.90
20985;DHT22;10651;47.552;7.606;2022-10-15T13:24:54;21.70;99.90
20985;DHT22;10651;47.552;7.606;2022-10-15T13:27:30;21.60;99.90
20985;DHT22;10651;47.552;7.606;2022-10-15T13:30:01;21.50;99.90
20985;DHT22;10651;47.552;7.606;2022-10-15T13:32:30;21.30;99.90
20985;DHT22;10651;47.552;7.606;2022-10-15T13:34:58;21.10;99.90
20985;DHT22;10651;47.552;7.606;2022-10-15T13:37:31;21.10;99.90
20985;DHT22;10651;47.552;7.606;2022-10-15T13:39:58;21.10;99.90
20985;DHT22;10651;47.552;7.606;2022-10-15T13:42:25;21.20;99.90
20985;DHT22;10651;47.552;7.606;2022-10-15T13:45:03;20.90;99.90
20985;DHT22;10651;47.552;7.606;2022-10-15T13:47:35;20.90;99.90
20985;DHT22;10651;47.552;7.606;2022-10-15T13:50:23;20.80;99.90
20985;DHT22;10651;47.552;7.606;2022-10-15T13:55:25;21.00;99.90
20985;DHT22;10651;47.552;7.606;2022-10-15T13:58:00;20.80;99.90
20985;DHT22;10651;47.552;7.606;2022-10-15T14:00:34;20.70;99.90
20985;DHT22;10651;47.552;7.606;2022-10-15T14:05:32;21.00;99.90
20985;DHT22;10651;47.552;7.606;2022-10-15T14:07:58;20.90;99.90
20985;DHT22;10651;47.552;7.606;2022-10-15T14:10:23;20.70;99.90
20985;DHT22;10651;47.552;7.606;2022-10-15T14:12:49;20.70;99.90
20985;DHT22;10651;47.552;7.606;2022-10-15T14:15:42;20.90;99.90
20985;DHT22;10651;47.552;7.606;2022-10-15T14:18:09;21.00;99.90
20985;DHT22;10651;47.552;7.606;2022-10-15T14:20:35;21.20;99.90
20985;DHT22;10651;47.552;7.606;2022-10-15T14:23:01;21.20;99.90
20985;DHT22;10651;47.552;7.606;2022-10-15T14:25:26;21.40;99.90
20985;DHT22;10651;47.552;7.606;2022-10-15T14:27:52;21.50;99.90
20985;DHT22;10651;47.552;7.606;2022-10-15T14:30:27;21.70;99.90
20985;DHT22;10651;47.552;7.606;2022-10-15T14:32:55;21.90;99.90
20985;DHT22;10651;47.552;7.606;2022-10-15T14:35:35;22.00;99.90
20985;DHT22;10651;47.552;7.606;2022-10-15T14:38:15;22.10;99.90
20985;DHT22;10651;47.552;7.606;2022-10-15T14:40:55;22.30;99.90
20985;DHT22;10651;47.552;7.606;2022-10-15T14:43:28;22.50;99.90
20985;DHT22;10651;47.552;7.606;2022-10-15T14:45:58;22.30;99.90
20985;DHT22;10651;47.552;7.606;2022-10-15T14:48:32;22.00;99.90
20985;DHT22;10651;47.552;7.606;2022-10-15T14:53:30;21.90;99.90
20985;DHT22;10651;47.552;7.606;2022-10-15T14:55:59;22.00;99.90
20985;DHT22;10651;47.552;7.606;2022-10-15T14:58:28;21.70;99.90
20985;DHT22;10651;47.552;7.606;2022-10-15T15:01:02;20.70;99.90
20985;DHT22;10651;47.552;7.606;2022-10-15T15:03:40;21.20;99.90
20985;DHT22;10651;47.552;7.606;2022-10-15T15:06:07;21.40;99.90
20985;DHT22;10651;47.552;7.606;2022-10-15T15:08:33;21.60;99.90
20985;DHT22;10651;47.552;7.606;2022-10-15T15:11:01;21.80;99.90
20985;DHT22;10651;47.552;7.606;2022-10-15T15:13:30;21.70;99.90
20985;DHT22;10651;47.552;7.606;2022-10-15T15:15:56;21.50;99.90
20985;DHT22;10651;47.552;7.606;2022-10-15T15:18:22;21.30;99.90
20985;DHT22;10651;47.552;7.606;2022-10-15T15:20:49;21.30;99.90
20985;DHT22;10651;47.552;7.606;2022-10-15T15:23:18;21.20;99.90
20985;DHT22;10651;47.552;7.606;2022-10-15T15:25:45;21.10;99.90
20985;DHT22;10651;47.552;7.606;2022-10-15T15:28:17;21.00;99.90
20985;DHT22;10651;47.552;7.606;2022-10-15T15:30:45;20.80;99.90
20985;DHT22;10651;47.552;7.606;2022-10-15T15:33:13;20.70;99.90
20985;DHT22;10651;47.552;7.606;2022-10-15T15:35:46;20.60;99.90
20985;DHT22;10651;47.552;7.606;2022-10-15T15:38:17;20.50;99.90
20985;DHT22;10651;47.552;7.606;2022-10-15T15:40:43;20.40;99.90
20985;DHT22;10651;47.552;7.606;2022-10-15T15:43:12;20.40;99.90
20985;DHT22;10651;47.552;7.606;2022-10-15T15:45:38;20.40;99.90
20985;DHT22;10651;47.552;7.606;2022-10-15T15:48:03;20.30;99.90
20985;DHT22;10651;47.552;7.606;2022-10-15T15:50:30;20.20;99.90
20985;DHT22;10651;47.552;7.606;2022-10-15T15:52:56;20.30;99.90
20985;DHT22;10651;47.552;7.606;2022-10-15T15:55:21;20.10;99.90
20985;DHT22;10651;47.552;7.606;2022-10-15T15:57:47;20.00;99.90
20985;DHT22;10651;47.552;7.606;2022-10-15T16:00:13;19.80;99.90
20985;DHT22;10651;47.552;7.606;2022-10-15T16:02:39;19.80;99.90
20985;DHT22;10651;47.552;7.606;2022-10-15T16:05:06;19.80;99.90
20985;DHT22;10651;47.552;7.606;2022-10-15T16:07:32;19.80;99.90
20985;DHT22;10651;47.552;7.606;2022-10-15T16:09:58;19.70;99.90
20985;DHT22;10651;47.552;7.606;2022-10-15T16:12:24;19.60;99.90
20985;DHT22;10651;47.552;7.606;2022-10-15T16:14:49;19.50;99.90
20985;DHT22;10651;47.552;7.606;2022-10-15T16:17:16;19.40;99.90
20985;DHT22;10651;47.552;7.606;2022-10-15T16:19:41;19.30;99.90
20985;DHT22;10651;47.552;7.606;2022-10-15T16:22:07;19.20;99.90
20985;DHT22;10651;47.552;7.606;2022-10-15T16:24:33;19.20;99.90
20985;DHT22;10651;47.552;7.606;2022-10-15T16:27:00;19.10;99.90
20985;DHT22;10651;47.552;7.606;2022-10-15T16:29:25;19.00;99.90
20985;DHT22;10651;47.552;7.606;2022-10-15T16:31:51;19.00;99.90
20985;DHT22;10651;47.552;7.606;2022-10-15T16:34:16;18.90;99.90
20985;DHT22;10651;47.552;7.606;2022-10-15T16:36:42;18.90;99.90
20985;DHT22;10651;47.552;7.606;2022-10-15T16:39:08;18.80;99.90
20985;DHT22;10651;47.552;7.606;2022-10-15T16:41:34;18.80;99.90
20985;DHT22;10651;47.552;7.606;2022-10-15T16:44:00;18.80;99.90
20985;DHT22;10651;47.552;7.606;2022-10-15T16:46:25;18.70;99.90
20985;DHT22;10651;47.552;7.606;2022-10-15T16:48:53;18.60;99.90
20985;DHT22;10651;47.552;7.606;2022-10-15T16:51:19;18.60;99.90
20985;DHT22;10651;47.552;7.606;2022-10-15T16:53:46;18.50;99.90
20985;DHT22;10651;47.552;7.606;2022-10-15T16:58:40;18.40;99.90
20985;DHT22;10651;47.552;7.606;2022-10-15T17:01:09;18.40;99.90
20985;DHT22;10651;47.552;7.606;2022-10-15T17:03:36;18.40;99.90
20985;DHT22;10651;47.552;7.606;2022-10-15T17:06:14;18.20;99.90
20985;DHT22;10651;47.552;7.606;2022-10-15T17:08:46;18.20;99.90
20985;DHT22;10651;47.552;7.606;2022-10-15T17:11:17;18.20;99.90
20985;DHT22;10651;47.552;7.606;2022-10-15T17:13:43;18.10;99.90
20985;DHT22;10651;47.552;7.606;2022-10-15T17:16:15;18.10;99.90
20985;DHT22;10651;47.552;7.606;2022-10-15T17:18:42;18.00;99.90
20985;DHT22;10651;47.552;7.606;2022-10-15T17:21:10;18.00;99.90
20985;DHT22;10651;47.552;7.606;2022-10-15T17:23:36;18.00;99.90
20985;DHT22;10651;47.552;7.606;2022-10-15T17:26:12;17.90;99.90
20985;DHT22;10651;47.552;7.606;2022-10-15T17:28:39;17.90;99.90
20985;DHT22;10651;47.552;7.606;2022-10-15T17:31:11;17.80;99.90
20985;DHT22;10651;47.552;7.606;2022-10-15T17:33:38;17.70;99.90
20985;DHT22;10651;47.552;7.606;2022-10-15T17:36:08;18.40;99.90
20985;DHT22;10651;47.552;7.606;2022-10-15T17:38:34;17.70;99.90
20985;DHT22;10651;47.552;7.606;2022-10-15T17:41:06;17.70;99.90
20985;DHT22;10651;47.552;7.606;2022-10-15T17:43:32;17.70;99.90
20985;DHT22;10651;47.552;7.606;2022-10-15T17:46:03;17.60;99.90
20985;DHT22;10651;47.552;7.606;2022-10-15T17:48:29;17.60;99.90
20985;DHT22;10651;47.552;7.606;2022-10-15T17:50:54;17.50;99.90
20985;DHT22;10651;47.552;7.606;2022-10-15T17:53:21;17.50;99.90
20985;DHT22;10651;47.552;7.606;2022-10-15T17:55:47;17.50;99.90
20985;DHT22;10651;47.552;7.606;2022-10-15T17:58:12;17.40;99.90
20985;DHT22;10651;47.552;7.606;2022-10-15T18:00:41;17.40;99.90
20985;DHT22;10651;47.552;7.606;2022-10-15T18:03:07;17.40;99.90
20985;DHT22;10651;47.552;7.606;2022-10-15T18:05:33;17.30;99.90
20985;DHT22;10651;47.552;7.606;2022-10-15T18:07:59;17.40;99.90
20985;DHT22;10651;47.552;7.606;2022-10-15T18:10:25;17.50;99.90
20985;DHT22;10651;47.552;7.606;2022-10-15T18:12:50;17.30;99.90
20985;DHT22;10651;47.552;7.606;2022-10-15T18:15:16;17.20;99.90
20985;DHT22;10651;47.552;7.606;2022-10-15T18:17:42;17.20;99.90
20985;DHT22;10651;47.552;7.606;2022-10-15T18:20:08;17.20;99.90
20985;DHT22;10651;47.552;7.606;2022-10-15T18:22:34;17.20;99.90
20985;DHT22;10651;47.552;7.606;2022-10-15T18:24:59;17.20;99.90
20985;DHT22;10651;47.552;7.606;2022-10-15T18:27:25;17.10;99.90
20985;DHT22;10651;47.552;7.606;2022-10-15T18:29:51;17.10;99.90
20985;DHT22;10651;47.552;7.606;2022-10-15T18:32:19;17.10;99.90
20985;DHT22;10651;47.552;7.606;2022-10-15T18:34:45;17.10;99.90
20985;DHT22;10651;47.552;7.606;2022-10-15T18:37:10;17.10;99.90
20985;DHT22;10651;47.552;7.606;2022-10-15T18:39:36;17.10;99.90
20985;DHT22;10651;47.552;7.606;2022-10-15T18:42:02;17.10;99.90
20985;DHT22;10651;47.552;7.606;2022-10-15T18:44:27;17.10;99.90
20985;DHT22;10651;47.552;7.606;2022-10-15T18:46:53;17.00;99.90
20985;DHT22;10651;47.552;7.606;2022-10-15T18:49:19;17.00;99.90
20985;DHT22;10651;47.552;7.606;2022-10-15T18:51:46;17.00;99.90
20985;DHT22;10651;47.552;7.606;2022-10-15T18:56:41;17.00;99.90
20985;DHT22;10651;47.552;7.606;2022-10-15T18:59:06;16.90;99.90
20985;DHT22;10651;47.552;7.606;2022-10-15T19:01:38;16.90;99.90
20985;DHT22;10651;47.552;7.606;2022-10-15T19:04:08;16.90;99.90
20985;DHT22;10651;47.552;7.606;2022-10-15T19:06:37;16.90;99.90
20985;DHT22;10651;47.552;7.606;2022-10-15T19:09:05;16.80;99.90
20985;DHT22;10651;47.552;7.606;2022-10-15T19:11:32;16.80;99.90
20985;DHT22;10651;47.552;7.606;2022-10-15T19:13:59;16.80;99.90
20985;DHT22;10651;47.552;7.606;2022-10-15T19:16:26;16.80;99.90
20985;DHT22;10651;47.552;7.606;2022-10-15T19:18:52;16.80;99.90
20985;DHT22;10651;47.552;7.606;2022-10-15T19:21:18;16.80;99.90
20985;DHT22;10651;47.552;7.606;2022-10-15T19:23:44;16.80;99.90
20985;DHT22;10651;47.552;7.606;2022-10-15T19:26:11;16.90;99.90
20985;DHT22;10651;47.552;7.606;2022-10-15T19:28:39;16.80;99.90
20985;DHT22;10651;47.552;7.606;2022-10-15T19:31:06;16.80;99.90
20985;DHT22;10651;47.552;7.606;2022-10-15T19:33:33;16.80;99.90
20985;DHT22;10651;47.552;7.606;2022-10-15T19:35:59;16.80;99.90
20985;DHT22;10651;47.552;7.606;2022-10-15T19:38:25;16.80;99.90
20985;DHT22;10651;47.552;7.606;2022-10-15T19:40:51;16.80;99.90
20985;DHT22;10651;47.552;7.606;2022-10-15T19:43:18;16.80;99.90
20985;DHT22;10651;47.552;7.606;2022-10-15T19:45:45;16.80;99.90
20985;DHT22;10651;47.552;7.606;2022-10-15T19:48:13;16.70;99.90
20985;DHT22;10651;47.552;7.606;2022-10-15T19:50:40;16.70;99.90
20985;DHT22;10651;47.552;7.606;2022-10-15T19:53:08;16.70;99.90
20985;DHT22;10651;47.552;7.606;2022-10-15T19:55:34;16.70;99.90
20985;DHT22;10651;47.552;7.606;2022-10-15T19:57:59;16.60;99.90
20985;DHT22;10651;47.552;7.606;2022-10-15T20:00:25;16.60;99.90
20985;DHT22;10651;47.552;7.606;2022-10-15T20:02:51;16.60;99.90
20985;DHT22;10651;47.552;7.606;2022-10-15T20:05:17;16.60;99.90
20985;DHT22;10651;47.552;7.606;2022-10-15T20:07:43;16.60;99.90
20985;DHT22;10651;47.552;7.606;2022-10-15T20:10:09;16.60;99.90
20985;DHT22;10651;47.552;7.606;2022-10-15T20:12:35;16.50;99.90
20985;DHT22;10651;47.552;7.606;2022-10-15T20:15:01;16.50;99.90
20985;DHT22;10651;47.552;7.606;2022-10-15T20:17:27;16.50;99.90
20985;DHT22;10651;47.552;7.606;2022-10-15T20:19:52;16.60;99.90
20985;DHT22;10651;47.552;7.606;2022-10-15T20:22:18;16.50;99.90
20985;DHT22;10651;47.552;7.606;2022-10-15T20:24:44;16.40;99.90
20985;DHT22;10651;47.552;7.606;2022-10-15T20:27:10;16.40;99.90
20985;DHT22;10651;47.552;7.606;2022-10-15T20:29:35;16.50;99.90
20985;DHT22;10651;47.552;7.606;2022-10-15T20:32:01;16.40;99.90
20985;DHT22;10651;47.552;7.606;2022-10-15T20:34:30;16.40;99.90
20985;DHT22;10651;47.552;7.606;2022-10-15T20:36:56;16.40;99.90
20985;DHT22;10651;47.552;7.606;2022-10-15T20:39:21;16.40;99.90
20985;DHT22;10651;47.552;7.606;2022-10-15T20:41:47;16.40;99.90
20985;DHT22;10651;47.552;7.606;2022-10-15T20:44:13;16.40;99.90
20985;DHT22;10651;47.552;7.606;2022-10-15T20:46:42;16.40;99.90
20985;DHT22;10651;47.552;7.606;2022-10-15T20:49:11;16.30;99.90
20985;DHT22;10651;47.552;7.606;2022-10-15T20:51:40;16.30;99.90
20985;DHT22;10651;47.552;7.606;2022-10-15T20:54:08;16.30;99.90
20985;DHT22;10651;47.552;7.606;2022-10-15T20:56:33;16.30;99.90
20985;DHT22;10651;47.552;7.606;2022-10-15T20:58:59;16.20;99.90
20985;DHT22;10651;47.552;7.606;2022-10-15T21:01:25;16.20;99.90
20985;DHT22;10651;47.552;7.606;2022-10-15T21:03:51;16.20;99.90
20985;DHT22;10651;47.552;7.606;2022-10-15T21:06:17;16.20;99.90
20985;DHT22;10651;47.552;7.606;2022-10-15T21:08:43;16.10;99.90
20985;DHT22;10651;47.552;7.606;2022-10-15T21:11:08;16.10;99.90
20985;DHT22;10651;47.552;7.606;2022-10-15T21:13:34;16.10;99.90
20985;DHT22;10651;47.552;7.606;2022-10-15T21:16:02;16.10;99.90
20985;DHT22;10651;47.552;7.606;2022-10-15T21:18:28;16.10;99.90
20985;DHT22;10651;47.552;7.606;2022-10-15T21:21:00;16.10;99.90
20985;DHT22;10651;47.552;7.606;2022-10-15T21:23:30;16.00;99.90
20985;DHT22;10651;47.552;7.606;2022-10-15T21:26:02;15.90;99.90
20985;DHT22;10651;47.552;7.606;2022-10-15T21:28:28;15.90;99.90
20985;DHT22;10651;47.552;7.606;2022-10-15T21:30:55;15.90;99.90
20985;DHT22;10651;47.552;7.606;2022-10-15T21:33:20;15.90;99.90
20985;DHT22;10651;47.552;7.606;2022-10-15T21:35:46;15.90;99.90
20985;DHT22;10651;47.552;7.606;2022-10-15T21:38:11;16.00;99.90
20985;DHT22;10651;47.552;7.606;2022-10-15T21:40:37;15.90;99.90
20985;DHT22;10651;47.552;7.606;2022-10-15T21:43:02;15.90;99.90
20985;DHT22;10651;47.552;7.606;2022-10-15T21:45:28;15.90;99.90
20985;DHT22;10651;47.552;7.606;2022-10-15T21:47:54;15.90;99.90
20985;DHT22;10651;47.552;7.606;2022-10-15T21:50:20;15.90;99.90
20985;DHT22;10651;47.552;7.606;2022-10-15T21:52:46;15.90;99.90
20985;DHT22;10651;47.552;7.606;2022-10-15T21:55:11;15.90;99.90
20985;DHT22;10651;47.552;7.606;2022-10-15T21:57:37;15.90;99.90
20985;DHT22;10651;47.552;7.606;2022-10-15T22:00:06;15.90;99.90
20985;DHT22;10651;47.552;7.606;2022-10-15T22:02:35;15.90;99.90
20985;DHT22;10651;47.552;7.606;2022-10-15T22:05:01;15.90;99.90
20985;DHT22;10651;47.552;7.606;2022-10-15T22:07:26;15.90;99.90
20985;DHT22;10651;47.552;7.606;2022-10-15T22:09:52;15.90;99.90
20985;DHT22;10651;47.552;7.606;2022-10-15T22:12:18;15.90;99.90
20985;DHT22;10651;47.552;7.606;2022-10-15T22:14:43;15.90;99.90
20985;DHT22;10651;47.552;7.606;2022-10-15T22:17:09;15.90;99.90
20985;DHT22;10651;47.552;7.606;2022-10-15T22:19:35;15.90;99.90
20985;DHT22;10651;47.552;7.606;2022-10-15T22:22:00;16.00;99.90
20985;DHT22;10651;47.552;7.606;2022-10-15T22:24:26;16.00;99.90
20985;DHT22;10651;47.552;7.606;2022-10-15T22:26:52;16.00;99.90
20985;DHT22;10651;47.552;7.606;2022-10-15T22:29:26;16.00;99.90
20985;DHT22;10651;47.552;7.606;2022-10-15T22:31:52;16.00;99.90
20985;DHT22;10651;47.552;7.606;2022-10-15T22:34:19;16.00;99.90
20985;DHT22;10651;47.552;7.606;2022-10-15T22:36:45;16.00;99.90
